createdAt,value
2022-07-28T00:03:15.976Z,60.66
2022-07-28T00:08:18.528Z,65.01
2022-07-28T00:13:21.014Z,67.36
2022-07-28T00:18:26.185Z,68.18
2022-07-28T00:23:38.890Z,69.49
2022-07-28T00:28:42.272Z,69.54
2022-07-28T00:33:46.511Z,66.33
2022-07-28T00:38:49.024Z,67.52
2022-07-28T00:43:54.074Z,67.74
2022-07-28T00:48:57.965Z,66.90
2022-07-28T00:54:00.678Z,64.24
2022-07-28T00:59:03.597Z,68.91
2022-07-28T01:04:07.693Z,72.14
2022-07-28T01:09:19.762Z,68.19
2022-07-28T01:14:26.757Z,69.53
2022-07-28T01:19:50.670Z,70.85
2022-07-28T01:25:00.268Z,70.49
2022-07-28T01:30:07.378Z,71.16
2022-07-28T01:35:15.491Z,68.79
2022-07-28T01:40:21.778Z,67.27
2022-07-28T01:45:25.956Z,68.94
2022-07-28T01:50:32.195Z,67.57
2022-07-28T01:55:36.031Z,68.41
2022-07-28T02:00:40.280Z,66.73
2022-07-28T02:05:45.703Z,70.25
2022-07-28T02:11:04.776Z,71.03
2022-07-28T02:16:12.923Z,72.03
2022-07-28T02:21:17.363Z,72.12
2022-07-28T02:26:22.960Z,69.93
2022-07-28T02:31:28.999Z,69.61
2022-07-28T02:36:38.987Z,69.39
2022-07-28T02:41:45.050Z,71.27
2022-07-28T02:46:52.297Z,70.90
2022-07-28T02:51:56.877Z,70.63
2022-07-28T02:57:00.246Z,69.98
2022-07-28T03:02:03.584Z,68.76
2022-07-28T03:07:07.887Z,68.59
2022-07-28T03:12:11.069Z,70.61
2022-07-28T03:17:13.850Z,69.48
2022-07-28T03:22:17.783Z,69.42
2022-07-28T03:27:23.880Z,72.40
2022-07-28T03:32:28.546Z,74.08
2022-07-28T03:37:36.958Z,73.37
2022-07-28T03:42:41.841Z,73.06
2022-07-28T03:47:51.175Z,73.20
2022-07-28T03:52:55.433Z,75.57
2022-07-28T03:57:58.182Z,73.72
2022-07-28T04:03:00.639Z,75.61
2022-07-28T04:08:04.572Z,74.06
2022-07-28T04:13:07.877Z,74.62
2022-07-28T04:18:10.593Z,74.91
2022-07-28T04:23:14.469Z,73.29
2022-07-28T04:28:17.051Z,72.19
2022-07-28T04:33:19.687Z,70.74
2022-07-28T04:38:23.506Z,67.93
2022-07-28T04:43:26.275Z,67.19
2022-07-28T04:48:28.758Z,67.06
2022-07-28T04:53:32.556Z,66.24
2022-07-28T04:58:35.044Z,64.15
2022-07-28T05:03:37.963Z,64.12
2022-07-28T05:08:41.844Z,64.42
2022-07-28T05:13:44.384Z,64.43
2022-07-28T05:18:47.265Z,62.71
2022-07-28T05:23:51.307Z,62.71
2022-07-28T05:28:53.793Z,61.14
2022-07-28T05:33:56.312Z,60.90
2022-07-28T05:39:00.834Z,61.19
2022-07-28T05:44:03.533Z,62.09
2022-07-28T05:49:06.403Z,63.41
2022-07-28T05:54:10.380Z,61.77
2022-07-28T05:59:14.852Z,62.40
2022-07-28T06:04:27.754Z,63.85
2022-07-28T06:09:32.325Z,61.91
2022-07-28T06:14:35.037Z,62.72
2022-07-28T06:19:37.558Z,61.60
2022-07-28T06:24:41.374Z,60.46
2022-07-28T06:29:43.950Z,60.22
2022-07-28T06:34:46.420Z,61.88
2022-07-28T06:39:50.274Z,59.47
2022-07-28T06:44:58.955Z,60.36
2022-07-28T06:50:02.732Z,59.85
2022-07-28T06:55:07.416Z,61.01
2022-07-28T07:00:14.280Z,60.78
2022-07-28T07:05:16.866Z,59.35
2022-07-28T07:10:20.695Z,58.89
2022-07-28T07:15:23.187Z,59.73
2022-07-28T07:20:25.745Z,59.16
2022-07-28T07:25:29.542Z,58.47
2022-07-28T07:30:32.031Z,56.97
2022-07-28T07:35:35.070Z,56.92
2022-07-28T07:40:38.947Z,55.58
2022-07-28T07:45:42.064Z,56.07
2022-07-28T07:50:44.975Z,56.02
2022-07-28T07:55:48.781Z,55.42
2022-07-28T08:00:51.585Z,54.29
2022-07-28T08:05:56.651Z,55.20
2022-07-28T08:11:01.351Z,53.59
2022-07-28T08:16:07.162Z,52.63
2022-07-28T08:21:09.614Z,52.35
2022-07-28T08:26:13.376Z,53.56
2022-07-28T08:31:17.751Z,52.02
2022-07-28T08:36:20.641Z,51.88
2022-07-28T08:41:37.560Z,50.76
2022-07-28T08:46:40.810Z,49.80
2022-07-28T08:51:44.569Z,48.08
2022-07-28T08:56:49.209Z,48.01
2022-07-28T09:01:57.258Z,46.54
2022-07-28T09:07:00.316Z,47.61
2022-07-28T09:12:05.761Z,46.97
2022-07-28T09:17:08.712Z,46.25
2022-07-28T09:22:11.288Z,44.59
2022-07-28T09:27:16.500Z,45.24
2022-07-28T09:32:20.524Z,44.17
2022-07-28T09:37:27.475Z,44.05
2022-07-28T09:42:47.024Z,43.25
2022-07-28T09:47:49.824Z,44.05
2022-07-28T09:52:52.474Z,43.42
2022-07-28T09:57:56.877Z,42.01
2022-07-28T10:03:00.486Z,43.22
2022-07-28T10:08:03.372Z,44.08
2022-07-28T10:13:07.327Z,40.29
2022-07-28T10:18:09.821Z,40.17
2022-07-28T10:23:13.707Z,41.51
2022-07-28T10:28:21.830Z,38.61
2022-07-28T10:33:26.411Z,35.74
2022-07-28T10:38:34.722Z,34.35
2022-07-28T10:43:42.930Z,32.74
2022-07-28T10:48:48.293Z,35.64
2022-07-28T10:53:57.021Z,32.61
2022-07-28T10:59:11.735Z,34.35
2022-07-28T11:04:52.302Z,30.49
2022-07-28T11:10:16.266Z,30.57
2022-07-28T11:15:33.485Z,30.32
2022-07-28T11:21:08.522Z,31.62
2022-07-28T11:26:37.324Z,31.50
2022-07-28T11:32:06.223Z,32.15
2022-07-28T11:37:14.963Z,32.84
2022-07-28T11:42:27.440Z,32.08
2022-07-28T11:47:31.776Z,31.55
2022-07-28T11:52:34.350Z,32.94
2022-07-28T11:57:44.067Z,31.23
2022-07-28T12:02:46.761Z,34.06
2022-07-28T12:07:52.435Z,32.10
2022-07-28T12:12:58.245Z,31.73
2022-07-28T12:18:01.000Z,33.78
2022-07-28T12:23:06.026Z,31.13
2022-07-28T12:28:17.310Z,33.49
2022-07-28T12:33:26.086Z,32.42
2022-07-28T12:38:31.932Z,29.92
2022-07-28T12:43:35.808Z,30.55
2022-07-28T12:48:41.078Z,31.01
2022-07-28T12:53:52.261Z,29.59
2022-07-28T12:59:13.190Z,31.00
2022-07-28T13:04:16.499Z,30.43
2022-07-28T13:09:23.778Z,29.16
2022-07-28T13:14:43.679Z,28.29
2022-07-28T13:19:47.318Z,29.58
2022-07-28T13:24:49.980Z,30.30
2022-07-28T13:29:54.338Z,30.29
2022-07-28T13:34:57.073Z,29.71
2022-07-28T13:39:59.784Z,28.69
2022-07-28T13:45:05.101Z,28.23
2022-07-28T13:50:09.656Z,29.35
2022-07-28T13:55:14.099Z,30.69
2022-07-28T14:00:23.556Z,32.74
2022-07-28T14:05:31.952Z,31.22
2022-07-28T14:10:35.705Z,30.81
2022-07-28T14:15:40.155Z,31.55
2022-07-28T14:20:42.781Z,29.34
2022-07-28T14:25:49.508Z,28.67
2022-07-28T14:30:54.219Z,29.82
2022-07-28T14:35:57.043Z,32.26
2022-07-28T14:40:59.589Z,33.53
2022-07-28T14:46:16.429Z,31.32
2022-07-28T14:51:23.802Z,30.01
2022-07-28T14:56:26.391Z,31.94
2022-07-28T15:01:30.268Z,29.69
2022-07-28T15:06:38.743Z,30.97
2022-07-28T15:11:42.019Z,29.42
2022-07-28T15:16:45.909Z,29.84
2022-07-28T15:21:48.695Z,28.69
2022-07-28T15:26:51.197Z,28.43
2022-07-28T15:31:55.388Z,29.30
2022-07-28T15:36:59.048Z,29.14
2022-07-28T15:42:01.623Z,30.88
2022-07-28T15:47:05.708Z,30.77
2022-07-28T15:52:08.337Z,29.92
2022-07-28T15:57:11.996Z,29.22
2022-07-28T16:02:17.474Z,30.04
2022-07-28T16:07:22.333Z,30.01
2022-07-28T16:12:25.873Z,28.97
2022-07-28T16:17:29.691Z,29.90
2022-07-28T16:22:32.403Z,31.45
2022-07-28T16:27:35.321Z,33.21
2022-07-28T16:32:39.224Z,29.73
2022-07-28T16:37:41.958Z,29.55
2022-07-28T16:42:44.435Z,29.61
2022-07-28T16:47:48.505Z,30.93
2022-07-28T16:52:52.028Z,30.59
2022-07-28T16:57:54.983Z,30.46
2022-07-28T17:02:58.914Z,30.36
2022-07-28T17:08:01.365Z,29.53
2022-07-28T17:13:04.114Z,28.97
2022-07-28T17:18:08.226Z,28.93
2022-07-28T17:23:10.827Z,30.17
2022-07-28T17:28:14.288Z,30.28
2022-07-28T17:33:18.082Z,30.79
2022-07-28T17:38:21.635Z,30.33
2022-07-28T17:43:24.514Z,29.96
2022-07-28T17:48:28.478Z,29.92
2022-07-28T17:53:31.076Z,30.97
2022-07-28T17:58:33.810Z,29.78
2022-07-28T18:03:57.649Z,30.69
2022-07-28T18:09:06.646Z,30.49
2022-07-28T18:14:09.821Z,32.27
2022-07-28T18:19:13.963Z,31.78
2022-07-28T18:24:18.017Z,32.15
2022-07-28T18:29:21.781Z,33.13
2022-07-28T18:34:25.861Z,35.30
2022-07-28T18:39:28.411Z,35.77
2022-07-28T18:44:31.087Z,35.54
2022-07-28T18:49:37.271Z,37.35
2022-07-28T18:54:40.472Z,38.26
2022-07-28T18:59:45.612Z,38.03
2022-07-28T19:04:52.954Z,37.59
2022-07-28T19:09:55.446Z,36.73
2022-07-28T19:14:59.088Z,39.04
2022-07-28T19:20:03.002Z,37.47
2022-07-28T19:25:07.757Z,37.89
2022-07-28T19:30:11.042Z,37.54
2022-07-28T19:35:15.063Z,37.68
2022-07-28T19:40:17.889Z,38.15
2022-07-28T19:45:23.375Z,38.83
2022-07-28T19:50:27.561Z,40.12
2022-07-28T19:55:32.226Z,39.33
2022-07-28T20:00:34.793Z,39.85
2022-07-28T20:05:38.987Z,39.85
2022-07-28T20:10:41.675Z,40.83
2022-07-28T20:15:44.158Z,42.52
2022-07-28T20:20:48.361Z,42.02
2022-07-28T20:25:51.119Z,42.86
2022-07-28T20:30:53.648Z,41.95
2022-07-28T20:35:57.682Z,41.81
2022-07-28T20:41:00.135Z,42.89
2022-07-28T20:46:09.049Z,42.59
2022-07-28T20:51:12.914Z,42.16
2022-07-28T20:56:15.781Z,44.41
2022-07-28T21:01:23.314Z,43.60
2022-07-28T21:06:27.935Z,43.53
2022-07-28T21:11:34.743Z,44.46
2022-07-28T21:16:37.811Z,43.56
2022-07-28T21:21:42.072Z,45.40
2022-07-28T21:26:44.831Z,45.20
2022-07-28T21:32:02.348Z,44.62
2022-07-28T21:37:11.907Z,44.70
2022-07-28T21:42:14.520Z,43.39
2022-07-28T21:47:17.071Z,43.17
2022-07-28T21:52:21.933Z,44.08
2022-07-28T21:57:25.015Z,43.67
2022-07-28T22:02:28.235Z,45.15
2022-07-28T22:07:32.995Z,45.63
2022-07-28T22:12:35.488Z,46.44
2022-07-28T22:17:38.028Z,47.68
2022-07-28T22:22:42.020Z,48.77
2022-07-28T22:27:44.523Z,49.73
2022-07-28T22:32:47.177Z,47.74
2022-07-28T22:37:51.154Z,47.88
2022-07-28T22:42:53.627Z,49.73
2022-07-28T22:47:56.103Z,49.14
2022-07-28T22:52:59.977Z,50.10
2022-07-28T22:58:05.567Z,50.83
2022-07-28T23:03:08.610Z,51.66
2022-07-28T23:08:16.838Z,53.41
2022-07-28T23:13:19.381Z,50.63
2022-07-28T23:18:21.820Z,49.02
2022-07-28T23:23:25.804Z,52.71
2022-07-28T23:28:28.282Z,51.10
2022-07-28T23:33:56.441Z,52.36
2022-07-28T23:38:55.942Z,50.03
2022-07-28T23:43:58.423Z,49.63
2022-07-28T23:49:01.137Z,48.62
2022-07-28T23:54:05.441Z,49.33
2022-07-28T23:59:11.782Z,49.46
